sensor_id;sensor_type;location;lat;lon;timestamp;pressure;altitude;pressure_sealevel;temperature;humidity
20156;BME280;10238;49.556;10.956;2023-02-15T00:02:22;99859.34;;;0.68;100.00
20156;BME280;10238;49.556;10.956;2023-02-15T00:05:10;99866.91;;;0.52;100.00
20156;BME280;10238;49.556;10.956;2023-02-15T00:07:58;99859.22;;;0.48;100.00
20156;BME280;10238;49.556;10.956;2023-02-15T00:10:45;99865.97;;;0.53;100.00
20156;BME280;10238;49.556;10.956;2023-02-15T00:13:35;99855.63;;;0.50;100.00
20156;BME280;10238;49.556;10.956;2023-02-15T00:16:25;99851.44;;;0.46;100.00
20156;BME280;10238;49.556;10.956;2023-02-15T00:19:15;99851.59;;;0.42;100.00
20156;BME280;10238;49.556;10.956;2023-02-15T00:22:03;99859.50;;;0.40;100.00
20156;BME280;10238;49.556;10.956;2023-02-15T00:24:50;99854.25;;;0.40;100.00
20156;BME280;10238;49.556;10.956;2023-02-15T00:27:38;99850.72;;;0.41;100.00
20156;BME280;10238;49.556;10.956;2023-02-15T00:30:27;99847.28;;;0.41;100.00
20156;BME280;10238;49.556;10.956;2023-02-15T00:33:14;99849.72;;;0.45;100.00
20156;BME280;10238;49.556;10.956;2023-02-15T00:36:04;99852.34;;;0.45;100.00
20156;BME280;10238;49.556;10.956;2023-02-15T00:38:52;99849.03;;;0.40;100.00
20156;BME280;10238;49.556;10.956;2023-02-15T00:41:40;99844.06;;;0.33;100.00
20156;BME280;10238;49.556;10.956;2023-02-15T00:44:27;99841.78;;;0.24;100.00
20156;BME280;10238;49.556;10.956;2023-02-15T00:47:16;99847.38;;;0.15;100.00
20156;BME280;10238;49.556;10.956;2023-02-15T00:50:06;99846.59;;;0.11;100.00
20156;BME280;10238;49.556;10.956;2023-02-15T00:52:53;99844.91;;;0.10;100.00
20156;BME280;10238;49.556;10.956;2023-02-15T00:55:41;99843.84;;;0.16;100.00
20156;BME280;10238;49.556;10.956;2023-02-15T00:58:29;99834.25;;;0.16;100.00
20156;BME280;10238;49.556;10.956;2023-02-15T01:01:19;99838.91;;;0.07;100.00
20156;BME280;10238;49.556;10.956;2023-02-15T01:04:09;99834.56;;;0.07;100.00
20156;BME280;10238;49.556;10.956;2023-02-15T01:06:56;99831.69;;;0.15;100.00
20156;BME280;10238;49.556;10.956;2023-02-15T01:09:44;99829.22;;;0.10;100.00
20156;BME280;10238;49.556;10.956;2023-02-15T01:12:32;99835.22;;;0.12;100.00
20156;BME280;10238;49.556;10.956;2023-02-15T01:15:20;99836.34;;;0.05;100.00
20156;BME280;10238;49.556;10.956;2023-02-15T01:18:08;99825.22;;;0.00;100.00
20156;BME280;10238;49.556;10.956;2023-02-15T01:20:57;99826.13;;;-0.01;100.00
20156;BME280;10238;49.556;10.956;2023-02-15T01:23:45;99828.06;;;-0.06;100.00
20156;BME280;10238;49.556;10.956;2023-02-15T01:26:33;99824.41;;;-0.02;100.00
20156;BME280;10238;49.556;10.956;2023-02-15T01:29:20;99827.91;;;-0.02;100.00
20156;BME280;10238;49.556;10.956;2023-02-15T01:32:08;99813.09;;;-0.03;100.00
20156;BME280;10238;49.556;10.956;2023-02-15T01:34:56;99816.78;;;-0.08;100.00
20156;BME280;10238;49.556;10.956;2023-02-15T01:37:45;99815.66;;;-0.01;100.00
20156;BME280;10238;49.556;10.956;2023-02-15T01:40:33;99812.28;;;-0.03;100.00
20156;BME280;10238;49.556;10.956;2023-02-15T01:43:21;99804.69;;;-0.11;100.00
20156;BME280;10238;49.556;10.956;2023-02-15T01:46:13;99803.06;;;-0.15;100.00
20156;BME280;10238;49.556;10.956;2023-02-15T01:49:04;99797.00;;;-0.15;100.00
20156;BME280;10238;49.556;10.956;2023-02-15T01:51:57;99793.63;;;-0.19;100.00
20156;BME280;10238;49.556;10.956;2023-02-15T01:54:48;99788.66;;;-0.26;100.00
20156;BME280;10238;49.556;10.956;2023-02-15T01:57:36;99788.66;;;-0.26;100.00
20156;BME280;10238;49.556;10.956;2023-02-15T02:00:24;99787.78;;;-0.25;100.00
20156;BME280;10238;49.556;10.956;2023-02-15T02:03:12;99783.84;;;-0.37;100.00
20156;BME280;10238;49.556;10.956;2023-02-15T02:06:00;99785.59;;;-0.37;100.00
20156;BME280;10238;49.556;10.956;2023-02-15T02:08:49;99787.38;;;-0.39;100.00
20156;BME280;10238;49.556;10.956;2023-02-15T02:11:40;99778.44;;;-0.32;100.00
20156;BME280;10238;49.556;10.956;2023-02-15T02:14:29;99785.28;;;-0.28;100.00
20156;BME280;10238;49.556;10.956;2023-02-15T02:17:26;99784.53;;;-0.32;100.00
20156;BME280;10238;49.556;10.956;2023-02-15T02:27:34;99776.16;;;-0.41;100.00
20156;BME280;10238;49.556;10.956;2023-02-15T02:30:51;99777.75;;;-0.37;100.00
20156;BME280;10238;49.556;10.956;2023-02-15T02:34:01;99777.59;;;-0.33;100.00
20156;BME280;10238;49.556;10.956;2023-02-15T02:36:57;99766.34;;;-0.35;100.00
20156;BME280;10238;49.556;10.956;2023-02-15T02:39:53;99768.75;;;-0.29;100.00
20156;BME280;10238;49.556;10.956;2023-02-15T02:42:49;99774.94;;;-0.31;100.00
20156;BME280;10238;49.556;10.956;2023-02-15T02:45:50;99765.47;;;-0.35;100.00
20156;BME280;10238;49.556;10.956;2023-02-15T02:48:41;99765.31;;;-0.31;100.00
20156;BME280;10238;49.556;10.956;2023-02-15T02:51:30;99760.75;;;-0.24;100.00
20156;BME280;10238;49.556;10.956;2023-02-15T02:54:18;99757.44;;;-0.29;100.00
20156;BME280;10238;49.556;10.956;2023-02-15T02:57:09;99759.69;;;-0.43;100.00
20156;BME280;10238;49.556;10.956;2023-02-15T03:00:02;99752.75;;;-0.44;100.00
20156;BME280;10238;49.556;10.956;2023-02-15T03:02:56;99750.81;;;-0.39;100.00
20156;BME280;10238;49.556;10.956;2023-02-15T03:05:48;99750.72;;;-0.36;100.00
20156;BME280;10238;49.556;10.956;2023-02-15T03:08:45;99754.91;;;-0.32;100.00
20156;BME280;10238;49.556;10.956;2023-02-15T03:11:33;99759.78;;;-0.46;100.00
20156;BME280;10238;49.556;10.956;2023-02-15T03:14:21;99752.75;;;-0.44;100.00
20156;BME280;10238;49.556;10.956;2023-02-15T03:17:12;99761.94;;;-0.33;100.00
20156;BME280;10238;49.556;10.956;2023-02-15T03:20:07;99761.16;;;-0.36;100.00
20156;BME280;10238;49.556;10.956;2023-02-15T03:23:02;99759.09;;;-0.27;100.00
20156;BME280;10238;49.556;10.956;2023-02-15T03:25:58;99760.03;;;-0.29;100.00
20156;BME280;10238;49.556;10.956;2023-02-15T03:28:52;99759.06;;;-0.25;100.00
20156;BME280;10238;49.556;10.956;2023-02-15T03:31:50;99762.56;;;-0.26;100.00
20156;BME280;10238;49.556;10.956;2023-02-15T03:34:41;99760.84;;;-0.27;100.00
20156;BME280;10238;49.556;10.956;2023-02-15T03:37:36;99759.56;;;-0.40;100.00
20156;BME280;10238;49.556;10.956;2023-02-15T03:40:31;99756.66;;;-0.31;100.00
20156;BME280;10238;49.556;10.956;2023-02-15T03:43:45;99752.41;;;-0.35;100.00
20156;BME280;10238;49.556;10.956;2023-02-15T03:46:43;99754.25;;;-0.37;100.00
20156;BME280;10238;49.556;10.956;2023-02-15T03:49:40;99762.75;;;-0.32;100.00
20156;BME280;10238;49.556;10.956;2023-02-15T03:52:32;99754.34;;;-0.40;100.00
20156;BME280;10238;49.556;10.956;2023-02-15T03:55:22;99755.56;;;-0.50;100.00
20156;BME280;10238;49.556;10.956;2023-02-15T03:58:10;99762.50;;;-0.49;100.00
20156;BME280;10238;49.556;10.956;2023-02-15T04:01:27;99758.41;;;-0.56;100.00
20156;BME280;10238;49.556;10.956;2023-02-15T04:04:42;99769.69;;;-0.56;100.00
20156;BME280;10238;49.556;10.956;2023-02-15T04:07:30;99769.03;;;-0.62;100.00
20156;BME280;10238;49.556;10.956;2023-02-15T04:10:18;99771.94;;;-0.71;100.00
20156;BME280;10238;49.556;10.956;2023-02-15T04:13:29;99778.38;;;-0.81;100.00
20156;BME280;10238;49.556;10.956;2023-02-15T04:16:17;99780.84;;;-0.77;100.00
20156;BME280;10238;49.556;10.956;2023-02-15T04:19:06;99779.59;;;-0.65;100.00
20156;BME280;10238;49.556;10.956;2023-02-15T04:22:11;99780.44;;;-0.65;100.00
20156;BME280;10238;49.556;10.956;2023-02-15T04:25:17;99779.16;;;-0.78;100.00
20156;BME280;10238;49.556;10.956;2023-02-15T04:28:05;99772.16;;;-0.77;100.00
20156;BME280;10238;49.556;10.956;2023-02-15T04:30:53;99772.00;;;-0.73;100.00
20156;BME280;10238;49.556;10.956;2023-02-15T04:33:41;99776.16;;;-0.67;100.00
20156;BME280;10238;49.556;10.956;2023-02-15T04:36:31;99776.16;;;-0.67;100.00
20156;BME280;10238;49.556;10.956;2023-02-15T04:39:19;99770.63;;;-0.58;100.00
20156;BME280;10238;49.556;10.956;2023-02-15T04:42:06;99772.41;;;-0.59;100.00
20156;BME280;10238;49.556;10.956;2023-02-15T04:44:54;99777.69;;;-0.60;100.00
20156;BME280;10238;49.556;10.956;2023-02-15T04:47:42;99777.88;;;-0.66;100.00
20156;BME280;10238;49.556;10.956;2023-02-15T04:50:31;99767.44;;;-0.66;100.00
20156;BME280;10238;49.556;10.956;2023-02-15T04:53:20;99770.34;;;-0.75;100.00
20156;BME280;10238;49.556;10.956;2023-02-15T04:56:07;99765.22;;;-0.78;100.00
20156;BME280;10238;49.556;10.956;2023-02-15T04:58:55;99762.22;;;-0.92;100.00
20156;BME280;10238;49.556;10.956;2023-02-15T05:01:43;99749.78;;;-0.84;100.00
20156;BME280;10238;49.556;10.956;2023-02-15T05:04:31;99744.16;;;-0.98;100.00
20156;BME280;10238;49.556;10.956;2023-02-15T05:07:19;99739.78;;;-0.98;100.00
20156;BME280;10238;49.556;10.956;2023-02-15T05:10:09;99737.41;;;-1.05;100.00
20156;BME280;10238;49.556;10.956;2023-02-15T05:12:57;99735.63;;;-1.03;100.00
20156;BME280;10238;49.556;10.956;2023-02-15T05:15:48;99743.34;;;-1.00;100.00
20156;BME280;10238;49.556;10.956;2023-02-15T05:18:36;99750.94;;;-0.93;100.00
20156;BME280;10238;49.556;10.956;2023-02-15T05:21:24;99747.34;;;-0.90;100.00
20156;BME280;10238;49.556;10.956;2023-02-15T05:24:11;99748.91;;;-0.85;100.00
20156;BME280;10238;49.556;10.956;2023-02-15T05:27:18;99745.16;;;-0.76;100.00
20156;BME280;10238;49.556;10.956;2023-02-15T05:30:23;99743.25;;;-0.71;100.00
20156;BME280;10238;49.556;10.956;2023-02-15T05:33:11;99749.13;;;-0.65;100.00
20156;BME280;10238;49.556;10.956;2023-02-15T05:35:59;99743.75;;;-0.60;100.00
20156;BME280;10238;49.556;10.956;2023-02-15T05:38:48;99733.50;;;-0.66;100.00
20156;BME280;10238;49.556;10.956;2023-02-15T05:41:36;99732.50;;;-0.62;100.00
20156;BME280;10238;49.556;10.956;2023-02-15T05:44:25;99728.63;;;-0.77;100.00
20156;BME280;10238;49.556;10.956;2023-02-15T05:47:12;99729.28;;;-0.70;100.00
20156;BME280;10238;49.556;10.956;2023-02-15T05:50:00;99719.75;;;-0.71;100.00
20156;BME280;10238;49.556;10.956;2023-02-15T05:52:49;99719.38;;;-0.85;100.00
20156;BME280;10238;49.556;10.956;2023-02-15T05:55:38;99724.44;;;-1.07;100.00
20156;BME280;10238;49.556;10.956;2023-02-15T05:58:27;99722.75;;;-1.09;100.00
20156;BME280;10238;49.556;10.956;2023-02-15T06:01:18;99729.09;;;-1.16;100.00
20156;BME280;10238;49.556;10.956;2023-02-15T06:04:08;99720.34;;;-1.15;100.00
20156;BME280;10238;49.556;10.956;2023-02-15T06:06:57;99719.97;;;-1.03;100.00
20156;BME280;10238;49.556;10.956;2023-02-15T06:09:46;99713.16;;;-1.07;100.00
20156;BME280;10238;49.556;10.956;2023-02-15T06:12:35;99718.16;;;-1.01;100.00
20156;BME280;10238;49.556;10.956;2023-02-15T06:15:23;99730.50;;;-1.06;100.00
20156;BME280;10238;49.556;10.956;2023-02-15T06:18:14;99723.00;;;-1.17;100.00
20156;BME280;10238;49.556;10.956;2023-02-15T06:21:02;99719.81;;;-1.25;100.00
20156;BME280;10238;49.556;10.956;2023-02-15T06:23:51;99723.09;;;-1.20;100.00
20156;BME280;10238;49.556;10.956;2023-02-15T06:26:40;99727.28;;;-1.14;100.00
20156;BME280;10238;49.556;10.956;2023-02-15T06:29:29;99743.59;;;-1.08;100.00
20156;BME280;10238;49.556;10.956;2023-02-15T06:32:17;99735.72;;;-1.06;100.00
20156;BME280;10238;49.556;10.956;2023-02-15T06:35:08;99738.06;;;-0.99;100.00
20156;BME280;10238;49.556;10.956;2023-02-15T06:37:57;99736.38;;;-1.00;100.00
20156;BME280;10238;49.556;10.956;2023-02-15T06:40:46;99739.63;;;-0.93;100.00
20156;BME280;10238;49.556;10.956;2023-02-15T06:43:34;99739.44;;;-1.13;100.00
20156;BME280;10238;49.556;10.956;2023-02-15T06:46:24;99737.53;;;-1.08;100.00
20156;BME280;10238;49.556;10.956;2023-02-15T06:49:13;99749.44;;;-1.00;100.00
20156;BME280;10238;49.556;10.956;2023-02-15T06:52:04;99746.00;;;-1.02;100.00
20156;BME280;10238;49.556;10.956;2023-02-15T06:54:53;99748.63;;;-1.02;100.00
20156;BME280;10238;49.556;10.956;2023-02-15T06:57:42;99744.53;;;-1.10;100.00
20156;BME280;10238;49.556;10.956;2023-02-15T07:00:30;99741.03;;;-1.09;100.00
20156;BME280;10238;49.556;10.956;2023-02-15T07:03:19;99738.41;;;-1.09;100.00
20156;BME280;10238;49.556;10.956;2023-02-15T07:06:08;99744.53;;;-1.10;100.00
20156;BME280;10238;49.556;10.956;2023-02-15T07:08:59;99741.03;;;-1.09;100.00
20156;BME280;10238;49.556;10.956;2023-02-15T07:11:48;99737.63;;;-1.11;100.00
20156;BME280;10238;49.556;10.956;2023-02-15T07:14:54;99744.75;;;-1.16;100.00
20156;BME280;10238;49.556;10.956;2023-02-15T07:17:44;99750.78;;;-1.14;100.00
20156;BME280;10238;49.556;10.956;2023-02-15T07:20:33;99750.81;;;-1.16;100.00
20156;BME280;10238;49.556;10.956;2023-02-15T07:23:24;99740.16;;;-1.08;100.00
20156;BME280;10238;49.556;10.956;2023-02-15T07:26:14;99746.88;;;-1.01;100.00
20156;BME280;10238;49.556;10.956;2023-02-15T07:29:03;99743.50;;;-1.05;100.00
20156;BME280;10238;49.556;10.956;2023-02-15T07:31:51;99733.16;;;-1.08;100.00
20156;BME280;10238;49.556;10.956;2023-02-15T07:34:41;99735.56;;;-1.02;100.00
20156;BME280;10238;49.556;10.956;2023-02-15T07:37:30;99737.31;;;-1.02;100.00
20156;BME280;10238;49.556;10.956;2023-02-15T07:40:19;99732.31;;;-1.08;100.00
20156;BME280;10238;49.556;10.956;2023-02-15T07:43:12;99736.63;;;-1.07;100.00
20156;BME280;10238;49.556;10.956;2023-02-15T07:46:02;99732.91;;;-1.26;100.00
20156;BME280;10238;49.556;10.956;2023-02-15T07:48:51;99739.72;;;-1.22;100.00
20156;BME280;10238;49.556;10.956;2023-02-15T07:51:40;99734.31;;;-1.16;100.00
20156;BME280;10238;49.556;10.956;2023-02-15T07:54:29;99741.13;;;-1.12;100.00
20156;BME280;10238;49.556;10.956;2023-02-15T07:57:18;99732.31;;;-1.08;100.00
20156;BME280;10238;49.556;10.956;2023-02-15T08:00:09;99735.81;;;-1.09;100.00
20156;BME280;10238;49.556;10.956;2023-02-15T08:02:59;99734.03;;;-1.07;100.00
20156;BME280;10238;49.556;10.956;2023-02-15T08:06:02;99741.66;;;-1.01;100.00
20156;BME280;10238;49.556;10.956;2023-02-15T08:08:51;99738.06;;;-0.99;100.00
20156;BME280;10238;49.556;10.956;2023-02-15T08:11:40;99735.81;;;-1.09;100.00
20156;BME280;10238;49.556;10.956;2023-02-15T08:14:30;99737.53;;;-1.08;100.00
20156;BME280;10238;49.556;10.956;2023-02-15T08:17:20;99738.91;;;-0.97;100.00
20156;BME280;10238;49.556;10.956;2023-02-15T08:20:10;99735.41;;;-0.97;100.00
20156;BME280;10238;49.556;10.956;2023-02-15T08:22:59;99742.03;;;-0.87;100.00
20156;BME280;10238;49.556;10.956;2023-02-15T08:25:48;99736.72;;;-0.84;100.00
20156;BME280;10238;49.556;10.956;2023-02-15T08:28:37;99744.56;;;-0.84;100.00
20156;BME280;10238;49.556;10.956;2023-02-15T08:31:26;99747.25;;;-0.87;100.00
20156;BME280;10238;49.556;10.956;2023-02-15T08:34:18;99741.78;;;-0.80;100.00
20156;BME280;10238;49.556;10.956;2023-02-15T08:37:07;99736.41;;;-0.75;100.00
20156;BME280;10238;49.556;10.956;2023-02-15T08:39:56;99745.78;;;-0.70;100.00
20156;BME280;10238;49.556;10.956;2023-02-15T08:42:45;99738.22;;;-0.77;100.00
20156;BME280;10238;49.556;10.956;2023-02-15T08:45:34;99727.56;;;-0.71;100.00
20156;BME280;10238;49.556;10.956;2023-02-15T08:48:23;99735.22;;;-0.91;100.00
20156;BME280;10238;49.556;10.956;2023-02-15T08:51:14;99732.22;;;-0.79;100.00
20156;BME280;10238;49.556;10.956;2023-02-15T08:54:04;99730.94;;;-0.68;100.00
20156;BME280;10238;49.556;10.956;2023-02-15T08:56:54;99740.69;;;-0.73;100.00
20156;BME280;10238;49.556;10.956;2023-02-15T08:59:42;99739.59;;;-0.67;100.00
20156;BME280;10238;49.556;10.956;2023-02-15T09:02:31;99737.59;;;-0.59;100.00
20156;BME280;10238;49.556;10.956;2023-02-15T09:05:19;99731.56;;;-0.61;100.00
20156;BME280;10238;49.556;10.956;2023-02-15T09:08:09;99721.94;;;-0.59;100.00
20156;BME280;10238;49.556;10.956;2023-02-15T09:11:07;99718.91;;;-0.47;100.00
20156;BME280;10238;49.556;10.956;2023-02-15T09:13:58;99726.75;;;-0.47;100.00
20156;BME280;10238;49.556;10.956;2023-02-15T09:16:48;99725.88;;;-0.48;100.00
20156;BME280;10238;49.556;10.956;2023-02-15T09:19:39;99725.19;;;-0.53;100.00
20156;BME280;10238;49.556;10.956;2023-02-15T09:22:28;99730.59;;;-0.57;100.00
20156;BME280;10238;49.556;10.956;2023-02-15T09:25:20;99729.81;;;-0.36;100.00
20156;BME280;10238;49.556;10.956;2023-02-15T09:28:08;99736.03;;;-0.39;100.00
20156;BME280;10238;49.556;10.956;2023-02-15T09:31:03;99737.31;;;-0.50;100.00
20156;BME280;10238;49.556;10.956;2023-02-15T09:33:52;99734.06;;;-0.34;100.00
20156;BME280;10238;49.556;10.956;2023-02-15T09:36:41;99738.56;;;-0.37;100.00
20156;BME280;10238;49.556;10.956;2023-02-15T09:39:31;99738.47;;;-0.34;100.00
20156;BME280;10238;49.556;10.956;2023-02-15T09:42:46;99735.88;;;-0.11;100.00
20156;BME280;10238;49.556;10.956;2023-02-15T09:45:52;99745.31;;;-0.07;100.00
20156;BME280;10238;49.556;10.956;2023-02-15T09:48:44;99747.28;;;0.11;100.00
20156;BME280;10238;49.556;10.956;2023-02-15T09:51:54;99751.41;;;0.17;100.00
20156;BME280;10238;49.556;10.956;2023-02-15T09:54:59;99744.44;;;0.17;100.00
20156;BME280;10238;49.556;10.956;2023-02-15T09:58:03;99745.69;;;0.30;100.00
20156;BME280;10238;49.556;10.956;2023-02-15T10:01:01;99747.03;;;0.40;100.00
20156;BME280;10238;49.556;10.956;2023-02-15T10:04:02;99735.75;;;0.38;100.00
20156;BME280;10238;49.556;10.956;2023-02-15T10:06:59;99736.25;;;0.26;100.00
20156;BME280;10238;49.556;10.956;2023-02-15T10:10:02;99738.63;;;0.32;100.00
20156;BME280;10238;49.556;10.956;2023-02-15T10:13:08;99735.66;;;0.18;100.00
20156;BME280;10238;49.556;10.956;2023-02-15T10:16:13;99735.66;;;0.41;100.00
20156;BME280;10238;49.556;10.956;2023-02-15T10:19:13;99737.38;;;0.19;100.00
20156;BME280;10238;49.556;10.956;2023-02-15T10:22:16;99727.88;;;0.40;100.00
20156;BME280;10238;49.556;10.956;2023-02-15T10:25:20;99718.44;;;0.36;100.00
20156;BME280;10238;49.556;10.956;2023-02-15T10:28:17;99716.53;;;0.62;100.00
20156;BME280;10238;49.556;10.956;2023-02-15T10:31:12;99713.44;;;0.74;100.00
20156;BME280;10238;49.556;10.956;2023-02-15T10:34:15;99710.25;;;0.66;100.00
20156;BME280;10238;49.556;10.956;2023-02-15T10:37:21;99697.09;;;0.68;100.00
20156;BME280;10238;49.556;10.956;2023-02-15T10:40:19;99695.94;;;0.96;100.00
20156;BME280;10238;49.556;10.956;2023-02-15T10:43:20;99678.50;;;0.75;100.00
20156;BME280;10238;49.556;10.956;2023-02-15T10:46:26;99670.84;;;1.12;100.00
20156;BME280;10238;49.556;10.956;2023-02-15T10:49:45;99667.22;;;1.15;100.00
20156;BME280;10238;49.556;10.956;2023-02-15T10:52:46;99659.94;;;1.01;100.00
20156;BME280;10238;49.556;10.956;2023-02-15T10:55:49;99671.16;;;1.25;100.00
20156;BME280;10238;49.556;10.956;2023-02-15T10:59:03;99666.31;;;1.56;100.00
20156;BME280;10238;49.556;10.956;2023-02-15T11:02:09;99661.13;;;1.54;100.00
20156;BME280;10238;49.556;10.956;2023-02-15T11:05:20;99658.22;;;1.80;100.00
20156;BME280;10238;49.556;10.956;2023-02-15T11:08:13;99660.44;;;2.27;100.00
20156;BME280;10238;49.556;10.956;2023-02-15T11:11:04;99656.03;;;2.08;100.00
20156;BME280;10238;49.556;10.956;2023-02-15T11:13:58;99653.47;;;2.25;100.00
20156;BME280;10238;49.556;10.956;2023-02-15T11:16:51;99654.69;;;2.00;100.00
20156;BME280;10238;49.556;10.956;2023-02-15T11:19:50;99646.63;;;2.04;100.00
20156;BME280;10238;49.556;10.956;2023-02-15T11:22:39;99633.09;;;2.49;100.00
20156;BME280;10238;49.556;10.956;2023-02-15T11:25:32;99635.06;;;2.63;100.00
20156;BME280;10238;49.556;10.956;2023-02-15T11:28:29;99629.75;;;2.64;100.00
20156;BME280;10238;49.556;10.956;2023-02-15T11:31:34;99623.34;;;2.70;100.00
20156;BME280;10238;49.556;10.956;2023-02-15T11:34:33;99622.53;;;3.03;100.00
20156;BME280;10238;49.556;10.956;2023-02-15T11:37:28;99619.19;;;2.83;100.00
20156;BME280;10238;49.556;10.956;2023-02-15T11:40:23;99616.09;;;2.75;100.00
20156;BME280;10238;49.556;10.956;2023-02-15T11:43:17;99611.69;;;3.26;100.00
20156;BME280;10238;49.556;10.956;2023-02-15T11:46:12;99604.44;;;3.31;100.00
20156;BME280;10238;49.556;10.956;2023-02-15T11:49:07;99599.91;;;3.50;100.00
20156;BME280;10238;49.556;10.956;2023-02-15T11:51:59;99605.19;;;3.66;100.00
20156;BME280;10238;49.556;10.956;2023-02-15T11:54:51;99594.91;;;3.46;100.00
20156;BME280;10238;49.556;10.956;2023-02-15T11:57:44;99598.78;;;3.71;100.00
20156;BME280;10238;49.556;10.956;2023-02-15T12:00:37;99600.00;;;3.97;100.00
20156;BME280;10238;49.556;10.956;2023-02-15T12:03:39;99594.16;;;4.23;100.00
20156;BME280;10238;49.556;10.956;2023-02-15T12:06:35;99583.34;;;3.96;100.00
20156;BME280;10238;49.556;10.956;2023-02-15T12:09:33;99584.13;;;4.45;100.00
20156;BME280;10238;49.556;10.956;2023-02-15T12:12:24;99574.72;;;4.10;100.00
20156;BME280;10238;49.556;10.956;2023-02-15T12:15:13;99563.00;;;4.15;100.00
20156;BME280;10238;49.556;10.956;2023-02-15T12:18:01;99551.38;;;4.19;100.00
20156;BME280;10238;49.556;10.956;2023-02-15T12:20:49;99559.19;;;4.05;100.00
20156;BME280;10238;49.556;10.956;2023-02-15T12:23:54;99544.00;;;3.79;100.00
20156;BME280;10238;49.556;10.956;2023-02-15T12:26:43;99540.09;;;4.02;100.00
20156;BME280;10238;49.556;10.956;2023-02-15T12:29:39;99546.19;;;4.02;100.00
20156;BME280;10238;49.556;10.956;2023-02-15T12:32:34;99550.84;;;3.66;100.00
20156;BME280;10238;49.556;10.956;2023-02-15T12:35:29;99551.13;;;3.93;100.00
20156;BME280;10238;49.556;10.956;2023-02-15T12:38:25;99548.06;;;3.85;100.00
20156;BME280;10238;49.556;10.956;2023-02-15T12:41:26;99550.34;;;4.67;100.00
20156;BME280;10238;49.556;10.956;2023-02-15T12:44:19;99541.31;;;4.87;100.00
20156;BME280;10238;49.556;10.956;2023-02-15T12:47:19;99535.84;;;4.90;100.00
20156;BME280;10238;49.556;10.956;2023-02-15T12:50:22;99538.69;;;5.01;100.00
20156;BME280;10238;49.556;10.956;2023-02-15T12:53:18;99535.94;;;4.88;100.00
20156;BME280;10238;49.556;10.956;2023-02-15T12:56:09;99530.81;;;5.43;100.00
20156;BME280;10238;49.556;10.956;2023-02-15T12:59:06;99520.72;;;5.63;100.00
20156;BME280;10238;49.556;10.956;2023-02-15T13:01:54;99513.22;;;5.71;100.00
20156;BME280;10238;49.556;10.956;2023-02-15T13:04:48;99505.28;;;5.71;100.00
20156;BME280;10238;49.556;10.956;2023-02-15T13:07:38;99495.94;;;6.47;100.00
20156;BME280;10238;49.556;10.956;2023-02-15T13:10:40;99495.75;;;6.62;100.00
20156;BME280;10238;49.556;10.956;2023-02-15T13:13:29;99498.25;;;6.91;100.00
20156;BME280;10238;49.556;10.956;2023-02-15T13:16:28;99496.69;;;7.87;100.00
20156;BME280;10238;49.556;10.956;2023-02-15T13:19:26;99504.22;;;8.16;100.00
20156;BME280;10238;49.556;10.956;2023-02-15T13:22:20;99500.69;;;7.44;100.00
20156;BME280;10238;49.556;10.956;2023-02-15T13:25:14;99498.09;;;7.80;100.00
20156;BME280;10238;49.556;10.956;2023-02-15T13:28:06;99491.53;;;8.45;100.00
20156;BME280;10238;49.556;10.956;2023-02-15T13:30:58;99490.97;;;8.29;100.00
20156;BME280;10238;49.556;10.956;2023-02-15T13:33:51;99495.31;;;8.88;100.00
20156;BME280;10238;49.556;10.956;2023-02-15T13:36:48;99496.84;;;9.36;100.00
20156;BME280;10238;49.556;10.956;2023-02-15T13:39:42;99491.31;;;9.72;100.00
20156;BME280;10238;49.556;10.956;2023-02-15T13:42:39;99483.53;;;9.91;100.00
20156;BME280;10238;49.556;10.956;2023-02-15T13:45:36;99486.47;;;9.88;100.00
20156;BME280;10238;49.556;10.956;2023-02-15T13:48:34;99478.75;;;9.85;100.00
20156;BME280;10238;49.556;10.956;2023-02-15T13:51:45;99486.47;;;9.77;100.00
20156;BME280;10238;49.556;10.956;2023-02-15T13:54:59;99478.88;;;9.73;100.00
20156;BME280;10238;49.556;10.956;2023-02-15T13:58:15;99476.34;;;9.38;100.00
20156;BME280;10238;49.556;10.956;2023-02-15T14:01:14;99473.06;;;9.79;100.00
20156;BME280;10238;49.556;10.956;2023-02-15T14:07:51;99465.84;;;9.59;100.00
20156;BME280;10238;49.556;10.956;2023-02-15T14:10:51;99465.13;;;9.46;100.00
20156;BME280;10238;49.556;10.956;2023-02-15T14:17:24;99466.44;;;9.62;100.00
20156;BME280;10238;49.556;10.956;2023-02-15T14:20:25;99468.88;;;9.54;100.00
20156;BME280;10238;49.556;10.956;2023-02-15T14:23:33;99473.69;;;9.38;100.00
20156;BME280;10238;49.556;10.956;2023-02-15T14:26:36;99468.59;;;9.13;100.00
20156;BME280;10238;49.556;10.956;2023-02-15T14:29:46;99470.03;;;9.17;100.00
20156;BME280;10238;49.556;10.956;2023-02-15T14:32:40;99476.09;;;9.30;100.00
20156;BME280;10238;49.556;10.956;2023-02-15T14:35:30;99466.19;;;9.32;100.00
20156;BME280;10238;49.556;10.956;2023-02-15T14:38:44;99463.41;;;9.23;100.00
20156;BME280;10238;49.556;10.956;2023-02-15T14:41:42;99460.41;;;8.70;100.00
20156;BME280;10238;49.556;10.956;2023-02-15T14:44:41;99462.53;;;9.00;100.00
20156;BME280;10238;49.556;10.956;2023-02-15T14:47:35;99464.00;;;9.04;100.00
20156;BME280;10238;49.556;10.956;2023-02-15T14:50:44;99454.72;;;8.99;100.00
20156;BME280;10238;49.556;10.956;2023-02-15T14:53:37;99444.69;;;8.91;100.00
20156;BME280;10238;49.556;10.956;2023-02-15T14:56:26;99454.56;;;8.89;100.00
20156;BME280;10238;49.556;10.956;2023-02-15T14:59:18;99454.09;;;8.84;100.00
20156;BME280;10238;49.556;10.956;2023-02-15T15:02:13;99455.28;;;8.80;100.00
20156;BME280;10238;49.556;10.956;2023-02-15T15:05:09;99451.38;;;8.73;100.00
20156;BME280;10238;49.556;10.956;2023-02-15T15:08:00;99435.91;;;8.45;100.00
20156;BME280;10238;49.556;10.956;2023-02-15T15:10:50;99445.31;;;8.49;100.00
20156;BME280;10238;49.556;10.956;2023-02-15T15:13:52;99454.22;;;8.48;100.00
20156;BME280;10238;49.556;10.956;2023-02-15T15:16:51;99446.72;;;8.42;100.00